createdAt,value
2023-04-06T00:01:23.576Z,98617.72
2023-04-06T00:03:50.981Z,98620.03
2023-04-06T00:06:18.461Z,98624.06
2023-04-06T00:08:46.133Z,98613.41
2023-04-06T00:11:13.624Z,98623.94
2023-04-06T00:13:41.262Z,98617.81
2023-04-06T00:16:08.770Z,98610.88
2023-04-06T00:18:36.773Z,98620.09
2023-04-06T00:21:05.603Z,98607.75
2023-04-06T00:23:33.011Z,98612.53
2023-04-06T00:26:00.439Z,98604.59
2023-04-06T00:28:27.922Z,98601.69
2023-04-06T00:30:56.383Z,98610.50
2023-04-06T00:33:24.591Z,98613.13
2023-04-06T00:35:52.049Z,98608.22
2023-04-06T00:38:19.215Z,98602.22
2023-04-06T00:40:46.329Z,98598.78
2023-04-06T00:43:14.576Z,98600.44
2023-04-06T00:45:43.202Z,98599.63
2023-04-06T00:48:10.611Z,98592.22
2023-04-06T00:50:37.777Z,98599.81
2023-04-06T00:53:04.797Z,98591.00
2023-04-06T00:55:31.889Z,98594.63
2023-04-06T00:58:02.092Z,98592.78
2023-04-06T01:00:33.532Z,98589.09
2023-04-06T01:03:02.336Z,98584.06
2023-04-06T01:05:41.465Z,98595.75
2023-04-06T01:08:15.646Z,98589.88
2023-04-06T01:10:43.690Z,98587.59
2023-04-06T01:13:20.411Z,98584.50
2023-04-06T01:15:54.475Z,98587.91
2023-04-06T01:18:45.988Z,98584.66
2023-04-06T01:21:17.576Z,98577.00
2023-04-06T01:24:09.265Z,98577.13
2023-04-06T01:26:51.624Z,98587.19
2023-04-06T01:29:18.831Z,98578.09
2023-04-06T01:31:45.999Z,98570.31
2023-04-06T01:34:13.718Z,98567.53
2023-04-06T01:36:41.209Z,98565.22
2023-04-06T01:39:23.571Z,98564.28
2023-04-06T01:41:51.687Z,98564.03
2023-04-06T01:44:21.588Z,98562.19
2023-04-06T01:46:55.035Z,98562.53
2023-04-06T01:49:22.117Z,98560.25
2023-04-06T01:51:55.220Z,98556.84
2023-04-06T01:54:22.414Z,98559.44
2023-04-06T01:57:06.473Z,98548.56
2023-04-06T01:59:42.823Z,98556.84
2023-04-06T02:02:18.651Z,98551.09
2023-04-06T02:04:54.841Z,98547.50
2023-04-06T02:07:21.941Z,98553.88
2023-04-06T02:09:49.152Z,98554.09
2023-04-06T02:12:24.987Z,98555.53
2023-04-06T02:14:52.697Z,98558.63
2023-04-06T02:17:19.760Z,98557.19
2023-04-06T02:19:47.165Z,98564.19
2023-04-06T02:22:14.223Z,98550.53
2023-04-06T02:24:41.282Z,98547.25
2023-04-06T02:27:08.504Z,98552.59
2023-04-06T02:29:35.575Z,98551.81
2023-04-06T02:32:04.074Z,98550.63
2023-04-06T02:34:33.102Z,98547.47
2023-04-06T02:37:00.658Z,98557.47
2023-04-06T02:39:28.066Z,98555.28
2023-04-06T02:41:57.062Z,98552.81
2023-04-06T02:44:26.042Z,98550.22
2023-04-06T02:46:53.039Z,98543.44
2023-04-06T02:49:21.660Z,98549.44
2023-04-06T02:51:49.686Z,98539.31
2023-04-06T02:54:21.889Z,98549.56
2023-04-06T02:56:48.922Z,98540.34
2023-04-06T02:59:16.370Z,98535.47
2023-04-06T03:01:50.070Z,98545.28
2023-04-06T03:04:17.276Z,98543.09
2023-04-06T03:06:44.591Z,98541.69
2023-04-06T03:09:21.486Z,98535.41
2023-04-06T03:11:48.532Z,98533.00
2023-04-06T03:14:18.280Z,98531.66
2023-04-06T03:16:45.495Z,98528.72
2023-04-06T03:19:17.481Z,98532.31
2023-04-06T03:21:44.731Z,98535.41
2023-04-06T03:24:14.706Z,98539.19
2023-04-06T03:26:43.200Z,98538.59
2023-04-06T03:29:10.524Z,98538.84
2023-04-06T03:31:37.914Z,98537.94
2023-04-06T03:34:24.275Z,98545.03
2023-04-06T03:36:59.780Z,98541.72
2023-04-06T03:39:34.257Z,98545.19
2023-04-06T03:42:01.870Z,98543.47
2023-04-06T03:44:37.003Z,98540.22
2023-04-06T03:47:04.829Z,98546.41
2023-04-06T03:49:31.900Z,98549.97
2023-04-06T03:51:59.953Z,98557.66
2023-04-06T03:54:27.017Z,98564.50
2023-04-06T03:56:54.099Z,98560.19
2023-04-06T03:59:21.166Z,98565.28
2023-04-06T04:01:48.321Z,98566.16
2023-04-06T04:04:15.423Z,98560.28
2023-04-06T04:06:42.437Z,98556.38
2023-04-06T04:09:09.717Z,98559.84
2023-04-06T04:11:37.004Z,98561.31
2023-04-06T04:14:04.488Z,98556.47
2023-04-06T04:16:31.739Z,98567.59
2023-04-06T04:19:01.396Z,98577.34
2023-04-06T04:21:32.308Z,98569.56
2023-04-06T04:24:03.707Z,98566.19
2023-04-06T04:26:33.127Z,98580.13
2023-04-06T04:29:00.206Z,98572.44
2023-04-06T04:31:27.314Z,98572.44
2023-04-06T04:34:00.127Z,98567.28
2023-04-06T04:36:31.156Z,98575.25
2023-04-06T04:39:02.260Z,98571.09
2023-04-06T04:41:32.435Z,98572.00
2023-04-06T04:44:00.537Z,98574.41
2023-04-06T04:46:28.278Z,98574.31
2023-04-06T04:48:55.881Z,98567.56
2023-04-06T04:51:23.261Z,98572.66
2023-04-06T04:54:02.651Z,98568.59
2023-04-06T04:56:32.046Z,98572.56
2023-04-06T04:59:09.509Z,98581.50
2023-04-06T05:01:51.692Z,98577.56
2023-04-06T05:04:24.573Z,98581.78
2023-04-06T05:07:10.433Z,98584.81
2023-04-06T05:09:40.471Z,98586.03
2023-04-06T05:12:08.309Z,98587.75
2023-04-06T05:14:42.411Z,98592.91
2023-04-06T05:17:14.904Z,98593.44
2023-04-06T05:19:41.923Z,98587.94
2023-04-06T05:22:09.847Z,98586.13
2023-04-06T05:24:41.091Z,98582.88
2023-04-06T05:27:08.839Z,98590.75
2023-04-06T05:29:36.116Z,98596.16
2023-04-06T05:32:03.524Z,98598.41
2023-04-06T05:34:31.122Z,98599.03
2023-04-06T05:37:02.321Z,98618.47
2023-04-06T05:39:29.513Z,98618.56
2023-04-06T05:41:56.869Z,98625.50
2023-04-06T05:44:47.082Z,98623.81
2023-04-06T05:47:16.333Z,98626.41
2023-04-06T05:49:45.836Z,98625.22
2023-04-06T05:52:20.408Z,98629.03
2023-04-06T05:54:49.257Z,98621.44
2023-04-06T05:57:17.671Z,98634.25
2023-04-06T05:59:45.673Z,98632.47
2023-04-06T06:02:14.971Z,98633.56
2023-04-06T06:04:45.787Z,98627.84
2023-04-06T06:07:13.509Z,98634.19
2023-04-06T06:09:45.327Z,98624.13
2023-04-06T06:12:20.921Z,98632.16
2023-04-06T06:14:50.216Z,98626.16
2023-04-06T06:17:17.636Z,98621.09
2023-04-06T06:19:47.411Z,98624.66
2023-04-06T06:22:14.718Z,98628.25
2023-04-06T06:24:45.385Z,98624.03
2023-04-06T06:27:13.005Z,98627.31
2023-04-06T06:29:40.256Z,98622.94
2023-04-06T06:32:07.383Z,98627.75
2023-04-06T06:34:34.629Z,98624.38
2023-04-06T06:37:04.561Z,98626.69
2023-04-06T06:39:31.625Z,98630.06
2023-04-06T06:42:01.511Z,98631.78
2023-04-06T06:44:46.017Z,98631.19
2023-04-06T06:47:13.074Z,98622.56
2023-04-06T06:49:40.447Z,98628.88
2023-04-06T06:52:07.934Z,98619.59
2023-04-06T06:54:35.435Z,98619.19
2023-04-06T06:57:02.874Z,98620.75
2023-04-06T06:59:30.517Z,98620.69
2023-04-06T07:01:58.008Z,98626.25
2023-04-06T07:04:25.639Z,98624.88
2023-04-06T07:06:53.719Z,98623.25
2023-04-06T07:09:21.193Z,98618.28
2023-04-06T07:11:49.125Z,98626.59
2023-04-06T07:14:17.625Z,98615.50
2023-04-06T07:16:46.242Z,98620.94
2023-04-06T07:19:13.891Z,98620.25
2023-04-06T07:21:41.316Z,98621.53
2023-04-06T07:24:09.120Z,98622.91
2023-04-06T07:26:37.420Z,98617.50
2023-04-06T07:29:05.826Z,98619.47
2023-04-06T07:31:33.414Z,98628.84
2023-04-06T07:34:01.101Z,98614.78
2023-04-06T07:36:29.004Z,98631.25
2023-04-06T07:38:56.494Z,98620.56
2023-04-06T07:41:24.979Z,98626.81
2023-04-06T07:43:52.752Z,98628.50
2023-04-06T07:46:20.241Z,98625.25
2023-04-06T07:48:47.454Z,98627.69
2023-04-06T07:51:15.956Z,98630.06
2023-04-06T07:53:47.223Z,98628.09
2023-04-06T07:56:16.396Z,98625.69
2023-04-06T07:58:44.053Z,98615.16
2023-04-06T08:01:11.499Z,98626.47
2023-04-06T08:03:39.048Z,98625.41
2023-04-06T08:06:06.677Z,98621.97
2023-04-06T08:08:34.158Z,98610.38
2023-04-06T08:11:03.549Z,98617.03
2023-04-06T08:13:31.501Z,98613.56
2023-04-06T08:15:59.855Z,98605.28
2023-04-06T08:18:27.295Z,98609.06
2023-04-06T08:20:55.501Z,98604.91
2023-04-06T08:23:23.090Z,98608.63
2023-04-06T08:25:50.842Z,98616.41
2023-04-06T08:28:18.262Z,98605.72
2023-04-06T08:30:45.743Z,98606.25
2023-04-06T08:33:13.208Z,98618.59
2023-04-06T08:35:41.213Z,98619.19
2023-04-06T08:38:08.786Z,98605.97
2023-04-06T08:40:40.170Z,98609.63
2023-04-06T08:43:10.865Z,98599.19
2023-04-06T08:45:39.281Z,98602.97
2023-04-06T08:48:07.713Z,98604.91
2023-04-06T08:50:36.297Z,98599.88
2023-04-06T08:53:04.024Z,98602.91
2023-04-06T08:55:31.458Z,98600.50
2023-04-06T08:58:00.256Z,98599.28
2023-04-06T09:00:28.515Z,98595.09
2023-04-06T09:02:57.205Z,98591.53
2023-04-06T09:05:26.548Z,98585.69
2023-04-06T09:07:54.028Z,98585.16
2023-04-06T09:10:21.779Z,98582.56
2023-04-06T09:12:48.880Z,98577.41
2023-04-06T09:15:24.764Z,98579.44
2023-04-06T09:17:54.908Z,98573.56
2023-04-06T09:20:27.383Z,98581.34
2023-04-06T09:22:55.236Z,98572.13
2023-04-06T09:25:25.526Z,98562.53
2023-04-06T09:28:03.647Z,98567.66
2023-04-06T09:30:31.379Z,98567.97
2023-04-06T09:33:00.482Z,98568.47
2023-04-06T09:35:28.453Z,98567.28
2023-04-06T09:37:56.401Z,98564.44
2023-04-06T09:40:23.925Z,98550.25
2023-04-06T09:42:53.763Z,98553.59
2023-04-06T09:45:21.943Z,98552.78
2023-04-06T09:47:52.356Z,98549.25
2023-04-06T09:50:21.529Z,98551.91
2023-04-06T09:52:51.781Z,98545.81
2023-04-06T09:55:36.564Z,98547.78
2023-04-06T09:58:08.468Z,98564.09
2023-04-06T10:01:02.873Z,98553.72
2023-04-06T10:04:00.471Z,98545.00
2023-04-06T10:06:29.818Z,98561.66
2023-04-06T10:08:58.816Z,98550.22
2023-04-06T10:11:26.417Z,98559.78
2023-04-06T10:13:53.974Z,98556.44
2023-04-06T10:16:21.468Z,98544.75
2023-04-06T10:18:52.006Z,98537.22
2023-04-06T10:21:23.713Z,98540.97
2023-04-06T10:23:54.262Z,98530.41
2023-04-06T10:26:23.133Z,98533.13
2023-04-06T10:28:51.530Z,98529.38
2023-04-06T10:31:29.043Z,98528.94
2023-04-06T10:33:57.709Z,98524.16
2023-04-06T10:36:28.640Z,98521.16
2023-04-06T10:38:59.686Z,98532.50
2023-04-06T10:41:42.140Z,98527.41
2023-04-06T10:44:09.433Z,98532.72
2023-04-06T10:46:36.933Z,98528.63
2023-04-06T10:49:13.874Z,98525.16
2023-04-06T10:51:41.161Z,98524.53
2023-04-06T10:54:09.210Z,98516.97
2023-04-06T10:56:39.952Z,98520.00
2023-04-06T10:59:08.524Z,98519.97
2023-04-06T11:01:35.748Z,98515.63
2023-04-06T11:04:03.703Z,98517.28
2023-04-06T11:06:35.002Z,98522.34
2023-04-06T11:09:01.972Z,98531.44
2023-04-06T11:11:29.023Z,98530.06
2023-04-06T11:14:00.752Z,98529.38
2023-04-06T11:16:33.298Z,98532.84
2023-04-06T11:19:05.722Z,98513.38
2023-04-06T11:21:36.820Z,98507.31
2023-04-06T11:24:09.443Z,98501.81
2023-04-06T11:26:42.595Z,98501.03
2023-04-06T11:29:09.828Z,98487.09
2023-04-06T11:31:42.491Z,98489.09
2023-04-06T11:34:31.235Z,98480.56
2023-04-06T11:37:07.039Z,98486.34
2023-04-06T11:39:52.185Z,98483.44
2023-04-06T11:42:27.739Z,98472.16
2023-04-06T11:45:01.660Z,98474.88
2023-04-06T11:47:37.548Z,98475.44
2023-04-06T11:50:15.543Z,98479.72
2023-04-06T11:52:43.670Z,98464.47
2023-04-06T11:55:19.243Z,98455.50
2023-04-06T11:57:46.402Z,98457.50
2023-04-06T12:00:14.158Z,98450.94
2023-04-06T12:02:46.921Z,98453.00
2023-04-06T12:05:14.073Z,98449.06
2023-04-06T12:10:09.778Z,98443.44
2023-04-06T12:12:37.178Z,98449.63
2023-04-06T12:15:05.984Z,98451.03
2023-04-06T12:17:32.941Z,98439.72
2023-04-06T12:20:05.098Z,98437.47
2023-04-06T12:22:33.350Z,98436.03
2023-04-06T12:25:00.584Z,98434.78
2023-04-06T12:27:27.714Z,98439.09
2023-04-06T12:29:56.588Z,98442.97
2023-04-06T12:32:23.630Z,98435.00
2023-04-06T12:34:53.185Z,98435.50
2023-04-06T12:37:21.334Z,98434.94
2023-04-06T12:39:48.359Z,98434.22
2023-04-06T12:42:15.839Z,98428.59
2023-04-06T12:44:43.784Z,98429.38
2023-04-06T12:47:12.191Z,98430.63
2023-04-06T12:49:39.228Z,98427.25
2023-04-06T12:52:06.277Z,98427.03
2023-04-06T12:54:33.311Z,98426.50
2023-04-06T12:57:01.914Z,98433.13
2023-04-06T12:59:32.177Z,98432.91
2023-04-06T13:01:59.226Z,98439.47
2023-04-06T13:04:27.345Z,98431.00
2023-04-06T13:06:54.429Z,98414.75
2023-04-06T13:09:21.669Z,98414.97
2023-04-06T13:11:48.722Z,98411.63
2023-04-06T13:14:15.960Z,98416.75
2023-04-06T13:16:43.785Z,98416.34
2023-04-06T13:19:11.762Z,98416.47
2023-04-06T13:21:40.001Z,98414.75
2023-04-06T13:24:07.195Z,98416.94
2023-04-06T13:26:34.211Z,98416.66
2023-04-06T13:29:02.307Z,98405.84
2023-04-06T13:31:30.513Z,98414.31
2023-04-06T13:33:57.597Z,98404.94
2023-04-06T13:36:24.913Z,98408.06
2023-04-06T13:38:51.976Z,98409.78
2023-04-06T13:41:24.081Z,98403.22
2023-04-06T13:43:51.105Z,98402.75
2023-04-06T13:46:18.223Z,98400.94
2023-04-06T13:48:45.505Z,98399.63
2023-04-06T13:51:14.011Z,98406.72
2023-04-06T13:53:41.948Z,98411.66
2023-04-06T13:56:09.373Z,98411.72
2023-04-06T13:58:37.146Z,98403.47
2023-04-06T14:01:11.272Z,98405.97
2023-04-06T14:03:40.415Z,98399.34
2023-04-06T14:08:44.445Z,98395.59
2023-04-06T14:11:15.685Z,98394.34
2023-04-06T14:13:43.222Z,98399.69
2023-04-06T14:16:10.358Z,98398.41
2023-04-06T14:18:37.972Z,98391.03
2023-04-06T14:21:05.153Z,98391.97
2023-04-06T14:23:33.904Z,98392.66
2023-04-06T14:26:09.350Z,98389.63
2023-04-06T14:28:37.390Z,98390.38
2023-04-06T14:31:13.113Z,98389.66
2023-04-06T14:33:40.939Z,98393.47
2023-04-06T14:36:09.064Z,98394.47
2023-04-06T14:38:36.661Z,98391.19
2023-04-06T14:41:03.743Z,98392.03
2023-04-06T14:43:31.088Z,98392.44
2023-04-06T14:46:02.342Z,98388.53
2023-04-06T14:48:29.734Z,98398.03
2023-04-06T14:50:57.530Z,98396.13
2023-04-06T14:53:25.425Z,98398.06
2023-04-06T14:55:52.454Z,98389.38
2023-04-06T14:58:23.908Z,98390.94
2023-04-06T15:00:56.505Z,98388.25
2023-04-06T15:03:26.082Z,98379.50
2023-04-06T15:05:54.081Z,98379.94
2023-04-06T15:08:23.987Z,98379.59
2023-04-06T15:10:52.424Z,98380.34
2023-04-06T15:13:19.660Z,98369.94
2023-04-06T15:15:46.654Z,98376.00
2023-04-06T15:18:13.727Z,98379.56
2023-04-06T15:20:41.569Z,98375.66
2023-04-06T15:23:08.619Z,98372.69
2023-04-06T15:25:35.684Z,98369.16
2023-04-06T15:28:02.667Z,98382.00
2023-04-06T15:30:29.657Z,98377.50
2023-04-06T15:33:01.491Z,98375.22
2023-04-06T15:35:32.424Z,98370.25
2023-04-06T15:37:59.408Z,98381.00
2023-04-06T15:40:27.204Z,98375.00
2023-04-06T15:42:54.182Z,98376.16
2023-04-06T15:45:21.265Z,98370.13
2023-04-06T15:47:48.368Z,98373.19
2023-04-06T15:50:15.637Z,98371.91
2023-04-06T15:52:42.719Z,98367.38
2023-04-06T15:55:10.323Z,98362.03
2023-04-06T15:57:37.264Z,98368.00
2023-04-06T16:00:05.018Z,98369.63
2023-04-06T16:02:36.697Z,98369.63
2023-04-06T16:05:04.276Z,98362.72
2023-04-06T16:07:32.950Z,98366.53
2023-04-06T16:10:00.390Z,98368.34
2023-04-06T16:12:29.012Z,98361.63
2023-04-06T16:14:56.191Z,98356.75
2023-04-06T16:17:23.247Z,98360.25
2023-04-06T16:19:50.336Z,98364.66
2023-04-06T16:22:17.369Z,98368.56
2023-04-06T16:24:44.351Z,98365.94
2023-04-06T16:27:12.237Z,98362.56
2023-04-06T16:29:39.244Z,98369.16
2023-04-06T16:32:06.683Z,98371.38
2023-04-06T16:34:34.434Z,98373.06
2023-04-06T16:37:02.077Z,98375.13
2023-04-06T16:39:29.159Z,98375.38
2023-04-06T16:41:56.948Z,98376.22
2023-04-06T16:44:24.040Z,98376.09
2023-04-06T16:46:51.197Z,98377.44
2023-04-06T16:49:20.167Z,98377.00
2023-04-06T16:51:47.217Z,98378.31
2023-04-06T16:54:14.252Z,98375.53
2023-04-06T16:56:41.382Z,98377.53
2023-04-06T16:59:12.507Z,98379.34
2023-04-06T17:01:39.682Z,98370.00
2023-04-06T17:04:06.942Z,98372.91
2023-04-06T17:06:34.098Z,98379.44
2023-04-06T17:09:01.160Z,98375.25
2023-04-06T17:11:35.873Z,98368.41
2023-04-06T17:14:10.621Z,98374.56
2023-04-06T17:16:37.777Z,98375.47
2023-04-06T17:19:04.895Z,98370.97
2023-04-06T17:21:32.048Z,98373.78
2023-04-06T17:23:59.037Z,98373.69
2023-04-06T17:26:26.168Z,98372.41
2023-04-06T17:28:53.181Z,98375.91
2023-04-06T17:31:20.290Z,98371.84
2023-04-06T17:33:47.773Z,98373.34
2023-04-06T17:36:15.002Z,98379.88
2023-04-06T17:38:44.165Z,98374.59
2023-04-06T17:41:13.723Z,98370.88
2023-04-06T17:43:40.867Z,98367.75
2023-04-06T17:46:08.096Z,98373.19
2023-04-06T17:48:35.116Z,98371.81
2023-04-06T17:51:02.118Z,98382.66
2023-04-06T17:53:33.306Z,98389.53
2023-04-06T17:56:04.263Z,98388.44
2023-04-06T17:58:31.559Z,98390.59
2023-04-06T18:00:58.626Z,98394.44
2023-04-06T18:03:25.636Z,98399.13
2023-04-06T18:05:52.773Z,98404.03
2023-04-06T18:08:19.723Z,98409.81
2023-04-06T18:10:48.368Z,98409.44
2023-04-06T18:13:15.611Z,98415.22
2023-04-06T18:15:42.635Z,98412.72
2023-04-06T18:18:09.682Z,98422.06
2023-04-06T18:20:41.411Z,98420.38
2023-04-06T18:23:08.441Z,98428.16
2023-04-06T18:25:39.963Z,98424.78
2023-04-06T18:28:09.188Z,98434.53
2023-04-06T18:30:36.597Z,98432.78
2023-04-06T18:33:04.192Z,98431.59
2023-04-06T18:35:31.346Z,98433.06
2023-04-06T18:37:58.399Z,98438.00
2023-04-06T18:40:38.558Z,98431.34
2023-04-06T18:43:08.032Z,98435.94
2023-04-06T18:45:38.953Z,98435.81
2023-04-06T18:48:07.078Z,98446.56
2023-04-06T18:50:34.154Z,98440.69
2023-04-06T18:53:01.447Z,98444.28
2023-04-06T18:55:32.402Z,98449.69
2023-04-06T18:57:59.516Z,98456.34
2023-04-06T19:00:27.108Z,98453.59
2023-04-06T19:02:54.361Z,98455.84
2023-04-06T19:05:22.420Z,98454.06
2023-04-06T19:07:52.593Z,98457.91
2023-04-06T19:10:20.180Z,98458.00
2023-04-06T19:12:47.953Z,98465.38
2023-04-06T19:15:15.777Z,98456.88
2023-04-06T19:17:42.974Z,98458.19
2023-04-06T19:20:10.596Z,98457.94
2023-04-06T19:22:38.059Z,98466.09
2023-04-06T19:25:06.602Z,98467.66
2023-04-06T19:27:33.930Z,98466.94
2023-04-06T19:30:01.007Z,98471.88
2023-04-06T19:32:30.130Z,98472.72
2023-04-06T19:34:59.425Z,98467.50
2023-04-06T19:37:26.598Z,98465.63
2023-04-06T19:39:53.862Z,98473.69
2023-04-06T19:42:21.745Z,98474.78
2023-04-06T19:44:48.899Z,98470.56
2023-04-06T19:47:16.091Z,98468.28
2023-04-06T19:49:43.559Z,98484.00
2023-04-06T19:52:11.075Z,98491.41
2023-04-06T19:54:40.626Z,98482.16
2023-04-06T19:57:08.235Z,98479.34
2023-04-06T19:59:35.395Z,98476.34
2023-04-06T20:02:02.918Z,98476.84
2023-04-06T20:04:30.524Z,98474.63
2023-04-06T20:06:57.685Z,98470.31
2023-04-06T20:09:25.113Z,98474.53
2023-04-06T20:11:54.231Z,98474.97
2023-04-06T20:14:22.764Z,98477.00
2023-04-06T20:16:50.903Z,98475.69
2023-04-06T20:19:19.410Z,98469.34
2023-04-06T20:21:48.101Z,98471.47
2023-04-06T20:24:15.909Z,98474.06
2023-04-06T20:26:42.852Z,98479.91
2023-04-06T20:29:09.946Z,98475.69
2023-04-06T20:31:37.050Z,98472.38
2023-04-06T20:34:04.574Z,98474.28
2023-04-06T20:36:33.786Z,98475.31
2023-04-06T20:39:01.177Z,98479.53
2023-04-06T20:41:28.390Z,98466.53
2023-04-06T20:43:55.384Z,98476.91
2023-04-06T20:46:22.474Z,98477.50
2023-04-06T20:48:49.579Z,98476.81
2023-04-06T20:51:23.065Z,98475.16
2023-04-06T20:53:50.382Z,98471.78
2023-04-06T20:56:17.381Z,98470.22
2023-04-06T20:58:44.381Z,98474.38
2023-04-06T21:01:16.520Z,98472.81
2023-04-06T21:03:45.127Z,98477.44
2023-04-06T21:06:12.249Z,98471.22
2023-04-06T21:08:39.442Z,98469.38
2023-04-06T21:11:06.642Z,98470.22
2023-04-06T21:13:35.012Z,98476.09
2023-04-06T21:16:03.070Z,98480.19
2023-04-06T21:18:31.971Z,98470.84
2023-04-06T21:20:59.391Z,98467.16
2023-04-06T21:23:26.464Z,98463.13
2023-04-06T21:25:56.895Z,98465.44
2023-04-06T21:28:25.636Z,98460.69
2023-04-06T21:30:56.122Z,98464.66
2023-04-06T21:33:23.501Z,98464.91
2023-04-06T21:35:50.742Z,98459.16
2023-04-06T21:38:17.815Z,98468.31
2023-04-06T21:40:44.818Z,98465.47
2023-04-06T21:43:11.742Z,98467.75
2023-04-06T21:45:39.117Z,98462.66
2023-04-06T21:48:07.009Z,98466.50
2023-04-06T21:50:34.099Z,98464.69
2023-04-06T21:53:01.111Z,98464.63
2023-04-06T21:55:28.159Z,98463.28
2023-04-06T21:57:55.165Z,98470.22
2023-04-06T22:00:22.186Z,98462.78
2023-04-06T22:02:49.542Z,98466.69
2023-04-06T22:05:16.883Z,98460.13
2023-04-06T22:07:47.012Z,98472.06
2023-04-06T22:10:14.113Z,98463.00
2023-04-06T22:12:41.085Z,98465.72
2023-04-06T22:15:11.309Z,98460.47
2023-04-06T22:17:38.517Z,98467.66
2023-04-06T22:20:06.297Z,98460.50
2023-04-06T22:22:33.308Z,98468.00
2023-04-06T22:25:01.201Z,98466.81
2023-04-06T22:27:28.370Z,98460.69
2023-04-06T22:29:56.226Z,98459.94
2023-04-06T22:32:23.241Z,98466.22
2023-04-06T22:34:50.364Z,98464.94
2023-04-06T22:37:17.340Z,98463.47
2023-04-06T22:39:45.033Z,98468.00
2023-04-06T22:42:12.017Z,98460.72
2023-04-06T22:44:39.065Z,98458.09
2023-04-06T22:47:06.198Z,98461.25
2023-04-06T22:49:33.243Z,98462.06
2023-04-06T22:52:01.350Z,98455.81
2023-04-06T22:54:28.416Z,98459.63
2023-04-06T22:56:55.897Z,98451.28
2023-04-06T22:59:22.915Z,98457.81
2023-04-06T23:01:50.036Z,98448.16
2023-04-06T23:04:17.207Z,98450.13
2023-04-06T23:06:44.415Z,98439.13
2023-04-06T23:09:11.485Z,98444.41
2023-04-06T23:11:38.475Z,98440.78
2023-04-06T23:14:05.687Z,98433.47
2023-04-06T23:16:32.755Z,98431.72
2023-04-06T23:18:59.825Z,98422.41
2023-04-06T23:21:27.511Z,98429.06
2023-04-06T23:23:54.805Z,98420.81
2023-04-06T23:26:22.232Z,98414.84
2023-04-06T23:28:49.194Z,98415.13
2023-04-06T23:31:16.278Z,98413.97
2023-04-06T23:33:43.377Z,98410.03
2023-04-06T23:36:10.578Z,98416.41
2023-04-06T23:38:37.573Z,98416.47
2023-04-06T23:41:04.722Z,98404.03
2023-04-06T23:43:31.695Z,98405.91
2023-04-06T23:45:58.740Z,98403.63
2023-04-06T23:48:25.788Z,98399.81
2023-04-06T23:50:52.798Z,98389.19
2023-04-06T23:53:19.745Z,98388.34
2023-04-06T23:55:46.746Z,98386.00
2023-04-06T23:58:13.762Z,98382.19
